Sanders, Montana
Current Conditions -  °F | °C
As of 5:53 PM on Wednesday 22 Oct 2014 (Local Time) from KMLS Reporting Station
Clear Clear  
Wind Chill: 55°   Ceiling: Unl
Heat Index: 55°   Visibility: 10mi
Dew Point: 26°   Wind: 8mph
Humidity: 33%   Direction: 230°SW
Pressure: 29.91"   Gusts: NA
Location:  46.29°N, 107.1°W
Report Text: KMLS 222353Z AUTO 23007KT 10SM CLR 13/M03 A2991 RMK AO2 SLP131 T01281033 10183 20128 58002
Loading
Personal Weather Stations






























Interactive Weather Map
Tropical Storm Tracking
New forecast layout! Learn more

10-Day Weather Forecast

Advertisements
Track Severe Weather on mobile